sensor_id;sensor_type;location;lat;lon;timestamp;pressure;altitude;pressure_sealevel;temperature;humidity
61345;BME280;47216;42.656;23.232;2024-02-14T00:00:19;93593.25;;;6.45;69.15
61345;BME280;47216;42.656;23.232;2024-02-14T00:02:47;93602.69;;;6.51;69.23
61345;BME280;47216;42.656;23.232;2024-02-14T00:05:15;93608.09;;;6.49;69.33
61345;BME280;47216;42.656;23.232;2024-02-14T00:07:42;93604.03;;;6.42;69.55
61345;BME280;47216;42.656;23.232;2024-02-14T00:10:09;93607.09;;;6.39;69.18
61345;BME280;47216;42.656;23.232;2024-02-14T00:12:37;93610.69;;;6.14;69.14
61345;BME280;47216;42.656;23.232;2024-02-14T00:15:04;93622.75;;;6.20;70.19
61345;BME280;47216;42.656;23.232;2024-02-14T00:17:34;93612.28;;;6.27;69.99
61345;BME280;47216;42.656;23.232;2024-02-14T00:20:01;93630.06;;;6.23;69.82
61345;BME280;47216;42.656;23.232;2024-02-14T00:22:29;93627.94;;;6.20;69.91
61345;BME280;47216;42.656;23.232;2024-02-14T00:24:56;93623.31;;;6.22;69.92
61345;BME280;47216;42.656;23.232;2024-02-14T00:27:22;93633.91;;;6.21;69.89
61345;BME280;47216;42.656;23.232;2024-02-14T00:29:50;93633.47;;;6.36;69.42
61345;BME280;47216;42.656;23.232;2024-02-14T00:32:17;93630.19;;;6.40;69.66
61345;BME280;47216;42.656;23.232;2024-02-14T00:34:45;93627.81;;;6.39;69.59
61345;BME280;47216;42.656;23.232;2024-02-14T00:37:11;93630.41;;;6.27;69.36
61345;BME280;47216;42.656;23.232;2024-02-14T00:39:39;93632.31;;;6.31;69.05
61345;BME280;47216;42.656;23.232;2024-02-14T00:42:06;93634.13;;;6.31;69.37
61345;BME280;47216;42.656;23.232;2024-02-14T00:44:32;93624.09;;;6.46;69.09
61345;BME280;47216;42.656;23.232;2024-02-14T00:46:59;93626.56;;;6.53;69.44
61345;BME280;47216;42.656;23.232;2024-02-14T00:49:27;93625.19;;;6.62;68.73
61345;BME280;47216;42.656;23.232;2024-02-14T00:51:55;93626.22;;;6.61;68.92
61345;BME280;47216;42.656;23.232;2024-02-14T00:54:22;93629.25;;;6.46;68.54
61345;BME280;47216;42.656;23.232;2024-02-14T00:56:49;93621.75;;;6.45;68.68
61345;BME280;47216;42.656;23.232;2024-02-14T00:59:16;93635.22;;;6.35;68.79
61345;BME280;47216;42.656;23.232;2024-02-14T01:01:43;93634.69;;;6.45;68.52
61345;BME280;47216;42.656;23.232;2024-02-14T01:04:10;93634.00;;;6.38;68.82
61345;BME280;47216;42.656;23.232;2024-02-14T01:06:37;93639.16;;;6.38;68.14
61345;BME280;47216;42.656;23.232;2024-02-14T01:09:05;93633.69;;;6.34;68.83
61345;BME280;47216;42.656;23.232;2024-02-14T01:11:34;93642.31;;;6.40;68.88
61345;BME280;47216;42.656;23.232;2024-02-14T01:14:00;93640.66;;;6.45;69.04
61345;BME280;47216;42.656;23.232;2024-02-14T01:16:28;93643.00;;;6.47;68.99
61345;BME280;47216;42.656;23.232;2024-02-14T01:18:55;93640.84;;;6.56;68.60
61345;BME280;47216;42.656;23.232;2024-02-14T01:21:22;93638.03;;;6.57;68.98
61345;BME280;47216;42.656;23.232;2024-02-14T01:23:49;93639.59;;;6.58;68.34
61345;BME280;47216;42.656;23.232;2024-02-14T01:26:18;93635.47;;;6.45;68.27
61345;BME280;47216;42.656;23.232;2024-02-14T01:28:46;93644.91;;;6.28;68.22
61345;BME280;47216;42.656;23.232;2024-02-14T01:31:13;93650.91;;;6.28;68.76
61345;BME280;47216;42.656;23.232;2024-02-14T01:33:39;93645.03;;;6.21;69.03
61345;BME280;47216;42.656;23.232;2024-02-14T01:36:06;93646.94;;;6.38;69.10
61345;BME280;47216;42.656;23.232;2024-02-14T01:38:33;93639.06;;;6.44;68.25
61345;BME280;47216;42.656;23.232;2024-02-14T01:41:01;93635.38;;;6.40;68.40
61345;BME280;47216;42.656;23.232;2024-02-14T01:43:30;93633.56;;;6.17;68.97
61345;BME280;47216;42.656;23.232;2024-02-14T01:46:04;93641.34;;;6.17;69.09
61345;BME280;47216;42.656;23.232;2024-02-14T01:48:31;93641.34;;;6.17;69.42
61345;BME280;47216;42.656;23.232;2024-02-14T01:50:59;93644.13;;;6.27;69.63
61345;BME280;47216;42.656;23.232;2024-02-14T01:53:27;93642.13;;;6.29;69.44
61345;BME280;47216;42.656;23.232;2024-02-14T01:55:56;93645.94;;;6.39;69.01
61345;BME280;47216;42.656;23.232;2024-02-14T01:58:23;93643.00;;;6.23;68.70
61345;BME280;47216;42.656;23.232;2024-02-14T02:00:53;93642.34;;;6.16;69.25
61345;BME280;47216;42.656;23.232;2024-02-14T02:03:24;93635.25;;;6.12;69.99
61345;BME280;47216;42.656;23.232;2024-02-14T02:05:51;93634.25;;;6.01;70.17
61345;BME280;47216;42.656;23.232;2024-02-14T02:08:19;93639.63;;;5.99;70.67
61345;BME280;47216;42.656;23.232;2024-02-14T02:10:46;93640.53;;;6.05;69.82
61345;BME280;47216;42.656;23.232;2024-02-14T02:13:13;93641.50;;;5.92;69.69
61345;BME280;47216;42.656;23.232;2024-02-14T02:15:41;93647.03;;;5.96;69.75
61345;BME280;47216;42.656;23.232;2024-02-14T02:18:11;93645.59;;;6.00;69.23
61345;BME280;47216;42.656;23.232;2024-02-14T02:20:38;93658.53;;;6.12;69.40
61345;BME280;47216;42.656;23.232;2024-02-14T02:23:10;93656.41;;;6.08;69.11
61345;BME280;47216;42.656;23.232;2024-02-14T02:25:40;93653.94;;;6.25;68.49
61345;BME280;47216;42.656;23.232;2024-02-14T02:28:07;93657.31;;;6.26;68.55
61345;BME280;47216;42.656;23.232;2024-02-14T02:30:34;93654.03;;;6.30;68.21
61345;BME280;47216;42.656;23.232;2024-02-14T02:33:02;93652.13;;;6.14;68.48
61345;BME280;47216;42.656;23.232;2024-02-14T02:35:29;93649.22;;;6.22;68.81
61345;BME280;47216;42.656;23.232;2024-02-14T02:37:56;93649.41;;;6.09;68.87
61345;BME280;47216;42.656;23.232;2024-02-14T02:40:24;93662.81;;;6.06;69.00
61345;BME280;47216;42.656;23.232;2024-02-14T02:42:52;93657.06;;;6.04;68.93
61345;BME280;47216;42.656;23.232;2024-02-14T02:45:19;93667.09;;;6.12;69.09
61345;BME280;47216;42.656;23.232;2024-02-14T02:47:46;93665.53;;;6.11;69.16
61345;BME280;47216;42.656;23.232;2024-02-14T02:50:13;93671.16;;;6.08;69.34
61345;BME280;47216;42.656;23.232;2024-02-14T02:52:40;93674.31;;;6.10;68.95
61345;BME280;47216;42.656;23.232;2024-02-14T02:55:07;93671.00;;;6.03;68.72
61345;BME280;47216;42.656;23.232;2024-02-14T02:57:35;93673.19;;;6.06;68.46
61345;BME280;47216;42.656;23.232;2024-02-14T03:00:07;93677.13;;;6.08;68.85
61345;BME280;47216;42.656;23.232;2024-02-14T03:02:35;93691.31;;;6.18;67.84
61345;BME280;47216;42.656;23.232;2024-02-14T03:05:04;93681.25;;;6.09;68.40
61345;BME280;47216;42.656;23.232;2024-02-14T03:07:36;93686.44;;;6.21;69.01
61345;BME280;47216;42.656;23.232;2024-02-14T03:10:03;93682.19;;;6.15;67.98
61345;BME280;47216;42.656;23.232;2024-02-14T03:12:30;93678.56;;;6.16;68.00
61345;BME280;47216;42.656;23.232;2024-02-14T03:14:59;93688.72;;;6.18;67.24
61345;BME280;47216;42.656;23.232;2024-02-14T03:17:26;93697.81;;;6.08;67.85
61345;BME280;47216;42.656;23.232;2024-02-14T03:19:54;93694.31;;;6.03;68.47
61345;BME280;47216;42.656;23.232;2024-02-14T03:22:21;93695.22;;;6.08;68.21
61345;BME280;47216;42.656;23.232;2024-02-14T03:24:48;93697.25;;;6.18;67.65
61345;BME280;47216;42.656;23.232;2024-02-14T03:27:15;93703.53;;;5.99;67.34
61345;BME280;47216;42.656;23.232;2024-02-14T03:29:43;93701.34;;;5.84;67.22
61345;BME280;47216;42.656;23.232;2024-02-14T03:32:11;93704.84;;;5.89;67.31
61345;BME280;47216;42.656;23.232;2024-02-14T03:34:38;93713.59;;;5.88;67.76
61345;BME280;47216;42.656;23.232;2024-02-14T03:37:05;93714.75;;;5.93;67.82
61345;BME280;47216;42.656;23.232;2024-02-14T03:39:32;93719.84;;;5.99;67.85
61345;BME280;47216;42.656;23.232;2024-02-14T03:41:59;93726.28;;;5.97;67.13
61345;BME280;47216;42.656;23.232;2024-02-14T03:44:31;93729.50;;;5.92;66.74
61345;BME280;47216;42.656;23.232;2024-02-14T03:46:58;93723.09;;;5.95;66.74
61345;BME280;47216;42.656;23.232;2024-02-14T03:49:26;93725.81;;;6.00;66.85
61345;BME280;47216;42.656;23.232;2024-02-14T03:51:54;93726.84;;;5.99;67.31
61345;BME280;47216;42.656;23.232;2024-02-14T03:54:21;93729.19;;;6.00;67.60
61345;BME280;47216;42.656;23.232;2024-02-14T03:56:48;93720.38;;;5.89;67.02
61345;BME280;47216;42.656;23.232;2024-02-14T03:59:16;93730.28;;;5.93;66.88
61345;BME280;47216;42.656;23.232;2024-02-14T04:01:49;93727.41;;;6.01;66.76
61345;BME280;47216;42.656;23.232;2024-02-14T04:04:18;93729.84;;;5.96;66.89
61345;BME280;47216;42.656;23.232;2024-02-14T04:06:47;93733.59;;;6.00;66.68
61345;BME280;47216;42.656;23.232;2024-02-14T04:09:13;93732.28;;;5.90;66.36
61345;BME280;47216;42.656;23.232;2024-02-14T04:11:41;93738.19;;;5.98;66.82
61345;BME280;47216;42.656;23.232;2024-02-14T04:14:08;93736.69;;;5.90;66.48
61345;BME280;47216;42.656;23.232;2024-02-14T04:16:38;93734.31;;;5.88;66.54
61345;BME280;47216;42.656;23.232;2024-02-14T04:19:05;93743.88;;;5.88;66.46
61345;BME280;47216;42.656;23.232;2024-02-14T04:21:32;93749.91;;;5.82;66.67
61345;BME280;47216;42.656;23.232;2024-02-14T04:24:00;93750.16;;;5.80;66.74
61345;BME280;47216;42.656;23.232;2024-02-14T04:26:27;93752.03;;;5.73;66.79
61345;BME280;47216;42.656;23.232;2024-02-14T04:28:54;93749.91;;;5.82;66.83
61345;BME280;47216;42.656;23.232;2024-02-14T04:31:21;93751.44;;;5.89;67.07
61345;BME280;47216;42.656;23.232;2024-02-14T04:33:47;93754.22;;;5.88;66.42
61345;BME280;47216;42.656;23.232;2024-02-14T04:36:17;93761.19;;;5.87;66.23
61345;BME280;47216;42.656;23.232;2024-02-14T04:38:44;93761.94;;;5.95;66.29
61345;BME280;47216;42.656;23.232;2024-02-14T04:41:12;93754.41;;;6.05;66.34
61345;BME280;47216;42.656;23.232;2024-02-14T04:43:40;93752.06;;;6.03;66.59
61345;BME280;47216;42.656;23.232;2024-02-14T04:46:07;93760.53;;;5.92;66.18
61345;BME280;47216;42.656;23.232;2024-02-14T04:48:34;93769.25;;;5.98;65.94
61345;BME280;47216;42.656;23.232;2024-02-14T04:51:01;93775.47;;;6.08;66.63
61345;BME280;47216;42.656;23.232;2024-02-14T04:53:28;93783.44;;;6.07;67.41
61345;BME280;47216;42.656;23.232;2024-02-14T04:55:55;93774.69;;;6.08;66.04
61345;BME280;47216;42.656;23.232;2024-02-14T04:58:23;93770.50;;;6.07;66.28
61345;BME280;47216;42.656;23.232;2024-02-14T05:00:51;93779.13;;;6.19;66.22
61345;BME280;47216;42.656;23.232;2024-02-14T05:03:20;93778.53;;;6.17;66.10
61345;BME280;47216;42.656;23.232;2024-02-14T05:05:47;93791.03;;;6.20;65.75
61345;BME280;47216;42.656;23.232;2024-02-14T05:08:13;93788.50;;;6.02;65.75
61345;BME280;47216;42.656;23.232;2024-02-14T05:10:41;93793.09;;;6.00;65.91
61345;BME280;47216;42.656;23.232;2024-02-14T05:13:08;93802.31;;;5.96;65.82
61345;BME280;47216;42.656;23.232;2024-02-14T05:15:36;93808.94;;;5.92;66.09
61345;BME280;47216;42.656;23.232;2024-02-14T05:18:03;93797.94;;;5.96;65.91
61345;BME280;47216;42.656;23.232;2024-02-14T05:20:30;93800.44;;;5.84;65.58
61345;BME280;47216;42.656;23.232;2024-02-14T05:22:57;93803.34;;;5.76;66.14
61345;BME280;47216;42.656;23.232;2024-02-14T05:25:24;93802.88;;;5.79;66.49
61345;BME280;47216;42.656;23.232;2024-02-14T05:27:53;93811.38;;;5.68;66.30
61345;BME280;47216;42.656;23.232;2024-02-14T05:30:20;93812.91;;;5.76;66.44
61345;BME280;47216;42.656;23.232;2024-02-14T05:32:49;93820.72;;;5.87;66.20
61345;BME280;47216;42.656;23.232;2024-02-14T05:35:17;93824.88;;;5.88;66.04
61345;BME280;47216;42.656;23.232;2024-02-14T05:37:45;93830.63;;;6.09;65.41
61345;BME280;47216;42.656;23.232;2024-02-14T05:40:16;93830.03;;;6.07;65.56
61345;BME280;47216;42.656;23.232;2024-02-14T05:42:43;93830.03;;;6.07;64.33
61345;BME280;47216;42.656;23.232;2024-02-14T05:45:10;93837.94;;;5.94;64.40
61345;BME280;47216;42.656;23.232;2024-02-14T05:47:37;93840.97;;;5.90;65.16
61345;BME280;47216;42.656;23.232;2024-02-14T05:50:07;93847.38;;;5.88;64.81
61345;BME280;47216;42.656;23.232;2024-02-14T05:52:37;93848.59;;;5.85;65.55
61345;BME280;47216;42.656;23.232;2024-02-14T05:55:04;93838.47;;;6.02;65.45
61345;BME280;47216;42.656;23.232;2024-02-14T05:57:31;93856.81;;;6.01;64.91
61345;BME280;47216;42.656;23.232;2024-02-14T05:59:58;93860.09;;;5.89;65.28
61345;BME280;47216;42.656;23.232;2024-02-14T06:02:25;93857.66;;;6.13;65.83
61345;BME280;47216;42.656;23.232;2024-02-14T06:04:52;93870.38;;;6.45;67.77
61345;BME280;47216;42.656;23.232;2024-02-14T06:07:20;93873.41;;;6.53;64.80
61345;BME280;47216;42.656;23.232;2024-02-14T06:09:47;93874.97;;;6.43;63.58
61345;BME280;47216;42.656;23.232;2024-02-14T06:12:14;93871.06;;;6.52;65.40
61345;BME280;47216;42.656;23.232;2024-02-14T06:14:40;93873.44;;;6.65;63.75
61345;BME280;47216;42.656;23.232;2024-02-14T06:17:07;93886.59;;;6.52;62.27
61345;BME280;47216;42.656;23.232;2024-02-14T06:19:34;93884.16;;;6.27;62.77
61345;BME280;47216;42.656;23.232;2024-02-14T06:22:01;93884.81;;;6.22;63.18
61345;BME280;47216;42.656;23.232;2024-02-14T06:24:29;93881.53;;;6.15;64.40
61345;BME280;47216;42.656;23.232;2024-02-14T06:26:56;93895.06;;;5.99;63.18
61345;BME280;47216;42.656;23.232;2024-02-14T06:29:23;93885.97;;;5.89;63.80
61345;BME280;47216;42.656;23.232;2024-02-14T06:31:50;93903.81;;;5.98;63.57
61345;BME280;47216;42.656;23.232;2024-02-14T06:34:19;93897.91;;;6.09;63.72
61345;BME280;47216;42.656;23.232;2024-02-14T06:36:48;93904.66;;;5.92;63.48
61345;BME280;47216;42.656;23.232;2024-02-14T06:39:14;93904.50;;;5.86;63.58
61345;BME280;47216;42.656;23.232;2024-02-14T06:41:43;93905.97;;;5.82;63.95
61345;BME280;47216;42.656;23.232;2024-02-14T06:44:10;93908.03;;;5.92;64.12
61345;BME280;47216;42.656;23.232;2024-02-14T06:46:37;93901.06;;;5.93;63.64
61345;BME280;47216;42.656;23.232;2024-02-14T06:49:04;93909.69;;;5.86;63.59
61345;BME280;47216;42.656;23.232;2024-02-14T06:51:31;93907.16;;;5.80;63.27
61345;BME280;47216;42.656;23.232;2024-02-14T06:53:58;93918.16;;;5.75;63.63
61345;BME280;47216;42.656;23.232;2024-02-14T06:56:25;93915.56;;;5.75;63.44
61345;BME280;47216;42.656;23.232;2024-02-14T06:58:53;93919.69;;;5.83;63.53
61345;BME280;47216;42.656;23.232;2024-02-14T07:01:25;93916.19;;;5.96;63.59
61345;BME280;47216;42.656;23.232;2024-02-14T07:03:52;93924.66;;;6.03;63.16
61345;BME280;47216;42.656;23.232;2024-02-14T07:06:19;93933.56;;;6.07;63.44
61345;BME280;47216;42.656;23.232;2024-02-14T07:08:49;93929.81;;;5.84;63.31
61345;BME280;47216;42.656;23.232;2024-02-14T07:11:16;93936.56;;;5.85;63.08
61345;BME280;47216;42.656;23.232;2024-02-14T07:13:43;93936.19;;;5.82;63.43
61345;BME280;47216;42.656;23.232;2024-02-14T07:16:11;93935.88;;;5.78;62.72
61345;BME280;47216;42.656;23.232;2024-02-14T07:18:38;93940.91;;;5.92;63.36
61345;BME280;47216;42.656;23.232;2024-02-14T07:21:05;93941.66;;;5.99;62.58
61345;BME280;47216;42.656;23.232;2024-02-14T07:23:32;93951.19;;;5.98;63.12
61345;BME280;47216;42.656;23.232;2024-02-14T07:25:59;93945.81;;;6.00;62.62
61345;BME280;47216;42.656;23.232;2024-02-14T07:28:27;93954.25;;;5.88;62.57
61345;BME280;47216;42.656;23.232;2024-02-14T07:30:54;93951.78;;;5.75;62.76
61345;BME280;47216;42.656;23.232;2024-02-14T07:33:22;93956.44;;;5.92;62.70
61345;BME280;47216;42.656;23.232;2024-02-14T07:35:49;93960.59;;;5.93;62.74
61345;BME280;47216;42.656;23.232;2024-02-14T07:38:16;93957.59;;;5.96;62.53
61345;BME280;47216;42.656;23.232;2024-02-14T07:40:43;93965.66;;;6.06;62.28
61345;BME280;47216;42.656;23.232;2024-02-14T07:43:10;93960.88;;;6.03;62.57
61345;BME280;47216;42.656;23.232;2024-02-14T07:45:37;93968.25;;;6.06;62.20
61345;BME280;47216;42.656;23.232;2024-02-14T07:48:04;93981.06;;;6.01;62.41
61345;BME280;47216;42.656;23.232;2024-02-14T07:50:33;93973.78;;;5.84;62.18
61345;BME280;47216;42.656;23.232;2024-02-14T07:52:59;93962.00;;;5.88;62.63
61345;BME280;47216;42.656;23.232;2024-02-14T07:55:26;93975.25;;;5.80;62.31
61345;BME280;47216;42.656;23.232;2024-02-14T07:57:53;93981.16;;;5.87;63.22
61345;BME280;47216;42.656;23.232;2024-02-14T08:00:20;93972.22;;;5.83;63.06
61345;BME280;47216;42.656;23.232;2024-02-14T08:02:49;93972.50;;;5.75;63.55
61345;BME280;47216;42.656;23.232;2024-02-14T08:05:16;93978.81;;;5.61;64.34
61345;BME280;47216;42.656;23.232;2024-02-14T08:07:45;93977.22;;;5.60;64.16
61345;BME280;47216;42.656;23.232;2024-02-14T08:10:13;93983.09;;;5.48;63.45
61345;BME280;47216;42.656;23.232;2024-02-14T08:12:40;93979.50;;;5.50;65.59
61345;BME280;47216;42.656;23.232;2024-02-14T08:15:07;93970.16;;;5.48;65.09
61345;BME280;47216;42.656;23.232;2024-02-14T08:17:34;93989.69;;;5.44;64.96
61345;BME280;47216;42.656;23.232;2024-02-14T08:20:01;93979.19;;;5.39;64.63
61345;BME280;47216;42.656;23.232;2024-02-14T08:22:29;93981.50;;;5.47;64.66
61345;BME280;47216;42.656;23.232;2024-02-14T08:24:57;93992.59;;;5.55;64.55
61345;BME280;47216;42.656;23.232;2024-02-14T08:27:24;93993.38;;;5.55;64.04
61345;BME280;47216;42.656;23.232;2024-02-14T08:29:53;93997.78;;;5.55;64.70
61345;BME280;47216;42.656;23.232;2024-02-14T08:32:20;94003.44;;;5.63;64.85
61345;BME280;47216;42.656;23.232;2024-02-14T08:34:47;93997.81;;;5.48;64.86
61345;BME280;47216;42.656;23.232;2024-02-14T08:37:16;93995.13;;;5.36;64.91
61345;BME280;47216;42.656;23.232;2024-02-14T08:39:43;94002.06;;;5.36;64.95
61345;BME280;47216;42.656;23.232;2024-02-14T08:42:11;93997.53;;;5.31;64.86
61345;BME280;47216;42.656;23.232;2024-02-14T08:44:38;94009.88;;;5.29;65.49
61345;BME280;47216;42.656;23.232;2024-02-14T08:47:06;94015.88;;;5.30;65.83
61345;BME280;47216;42.656;23.232;2024-02-14T08:49:34;94020.22;;;5.29;65.05
61345;BME280;47216;42.656;23.232;2024-02-14T08:52:01;94022.34;;;5.14;65.32
61345;BME280;47216;42.656;23.232;2024-02-14T08:54:28;94023.50;;;5.18;65.87
61345;BME280;47216;42.656;23.232;2024-02-14T08:56:55;94022.75;;;5.36;65.84
61345;BME280;47216;42.656;23.232;2024-02-14T08:59:26;94020.72;;;5.44;65.25
61345;BME280;47216;42.656;23.232;2024-02-14T09:01:53;94023.44;;;5.50;65.55
61345;BME280;47216;42.656;23.232;2024-02-14T09:04:19;94024.13;;;5.38;65.28
61345;BME280;47216;42.656;23.232;2024-02-14T09:06:46;94023.31;;;5.44;65.37
61345;BME280;47216;42.656;23.232;2024-02-14T09:09:13;94035.19;;;5.27;66.47
61345;BME280;47216;42.656;23.232;2024-02-14T09:11:41;94035.81;;;5.22;66.55
61345;BME280;47216;42.656;23.232;2024-02-14T09:14:08;94043.75;;;5.21;67.29
61345;BME280;47216;42.656;23.232;2024-02-14T09:16:37;94043.44;;;5.36;67.75
61345;BME280;47216;42.656;23.232;2024-02-14T09:19:04;94047.59;;;5.43;67.71
61345;BME280;47216;42.656;23.232;2024-02-14T09:21:33;94042.63;;;5.42;68.49
61345;BME280;47216;42.656;23.232;2024-02-14T09:24:01;94044.41;;;5.41;68.69
61345;BME280;47216;42.656;23.232;2024-02-14T09:26:28;94044.81;;;5.38;69.16
61345;BME280;47216;42.656;23.232;2024-02-14T09:28:55;94049.59;;;5.41;69.63
61345;BME280;47216;42.656;23.232;2024-02-14T09:31:22;94047.88;;;5.29;70.19
61345;BME280;47216;42.656;23.232;2024-02-14T09:33:50;94046.41;;;5.39;70.18
61345;BME280;47216;42.656;23.232;2024-02-14T09:36:22;94051.13;;;5.49;69.95
61345;BME280;47216;42.656;23.232;2024-02-14T09:38:48;94056.91;;;5.44;70.23
61345;BME280;47216;42.656;23.232;2024-02-14T09:41:19;94054.66;;;5.55;69.70
61345;BME280;47216;42.656;23.232;2024-02-14T09:43:48;94057.88;;;5.50;70.42
61345;BME280;47216;42.656;23.232;2024-02-14T09:46:15;94057.03;;;5.56;70.60
61345;BME280;47216;42.656;23.232;2024-02-14T09:48:43;94055.06;;;5.52;70.12
61345;BME280;47216;42.656;23.232;2024-02-14T09:51:13;94051.91;;;5.50;69.40
61345;BME280;47216;42.656;23.232;2024-02-14T09:53:40;94054.59;;;5.36;68.92
61345;BME280;47216;42.656;23.232;2024-02-14T09:56:10;94045.75;;;5.19;69.62
61345;BME280;47216;42.656;23.232;2024-02-14T09:58:37;94043.75;;;5.21;70.69
61345;BME280;47216;42.656;23.232;2024-02-14T10:01:04;94040.91;;;5.29;70.90
61345;BME280;47216;42.656;23.232;2024-02-14T10:03:32;94047.19;;;5.40;70.11
61345;BME280;47216;42.656;23.232;2024-02-14T10:05:59;94032.81;;;5.51;69.45
61345;BME280;47216;42.656;23.232;2024-02-14T10:08:27;94029.16;;;5.58;68.46
61345;BME280;47216;42.656;23.232;2024-02-14T10:10:56;94034.72;;;5.62;68.81
61345;BME280;47216;42.656;23.232;2024-02-14T10:13:26;94033.38;;;5.78;67.70
61345;BME280;47216;42.656;23.232;2024-02-14T10:15:53;94036.88;;;5.65;64.83
61345;BME280;47216;42.656;23.232;2024-02-14T10:18:20;94040.56;;;5.51;65.19
61345;BME280;47216;42.656;23.232;2024-02-14T10:20:54;94037.25;;;5.43;65.08
61345;BME280;47216;42.656;23.232;2024-02-14T10:23:21;94037.59;;;5.47;66.57
61345;BME280;47216;42.656;23.232;2024-02-14T10:25:52;94036.13;;;5.58;65.66
61345;BME280;47216;42.656;23.232;2024-02-14T10:28:20;94041.03;;;5.66;65.30
61345;BME280;47216;42.656;23.232;2024-02-14T10:30:48;94033.75;;;5.81;65.14
61345;BME280;47216;42.656;23.232;2024-02-14T10:33:16;94030.94;;;5.83;64.70
61345;BME280;47216;42.656;23.232;2024-02-14T10:35:43;94033.66;;;5.95;64.24
61345;BME280;47216;42.656;23.232;2024-02-14T10:38:11;94034.28;;;5.90;63.49
61345;BME280;47216;42.656;23.232;2024-02-14T10:40:38;94026.63;;;5.77;64.48
61345;BME280;47216;42.656;23.232;2024-02-14T10:43:07;94033.38;;;5.78;64.11
61345;BME280;47216;42.656;23.232;2024-02-14T10:45:35;94036.13;;;5.58;63.49
61345;BME280;47216;42.656;23.232;2024-02-14T10:48:06;94028.84;;;5.48;63.45
61345;BME280;47216;42.656;23.232;2024-02-14T10:50:41;94037.28;;;5.37;62.87
61345;BME280;47216;42.656;23.232;2024-02-14T10:53:13;94038.81;;;5.44;64.06
61345;BME280;47216;42.656;23.232;2024-02-14T10:55:41;94031.09;;;5.38;63.21
61345;BME280;47216;42.656;23.232;2024-02-14T10:58:12;94032.47;;;5.40;63.89
61345;BME280;47216;42.656;23.232;2024-02-14T11:00:40;94035.50;;;5.37;63.55
61345;BME280;47216;42.656;23.232;2024-02-14T11:03:08;94035.91;;;5.34;63.95
61345;BME280;47216;42.656;23.232;2024-02-14T11:05:43;94033.53;;;5.58;63.35
61345;BME280;47216;42.656;23.232;2024-02-14T11:08:13;94042.25;;;5.63;63.83
61345;BME280;47216;42.656;23.232;2024-02-14T11:10:40;94039.25;;;5.66;64.09
61345;BME280;47216;42.656;23.232;2024-02-14T11:13:10;94032.00;;;5.75;63.93
61345;BME280;47216;42.656;23.232;2024-02-14T11:15:44;94035.41;;;5.51;62.60
61345;BME280;47216;42.656;23.232;2024-02-14T11:18:12;94033.13;;;5.61;63.17
61345;BME280;47216;42.656;23.232;2024-02-14T11:20:39;94035.50;;;5.62;62.89
61345;BME280;47216;42.656;23.232;2024-02-14T11:23:07;94041.56;;;5.50;64.19
61345;BME280;47216;42.656;23.232;2024-02-14T11:25:37;94038.06;;;5.37;65.64
61345;BME280;47216;42.656;23.232;2024-02-14T11:28:13;94035.34;;;5.32;66.76
61345;BME280;47216;42.656;23.232;2024-02-14T11:30:42;94034.47;;;5.38;66.59
61345;BME280;47216;42.656;23.232;2024-02-14T11:33:16;94043.63;;;5.41;67.00
61345;BME280;47216;42.656;23.232;2024-02-14T11:35:47;94041.09;;;5.34;67.41
61345;BME280;47216;42.656;23.232;2024-02-14T11:38:15;94046.03;;;5.36;67.58
61345;BME280;47216;42.656;23.232;2024-02-14T11:40:42;94044.47;;;5.35;67.84
61345;BME280;47216;42.656;23.232;2024-02-14T11:43:12;94037.44;;;5.42;68.15
61345;BME280;47216;42.656;23.232;2024-02-14T11:45:42;94044.81;;;5.38;68.29
61345;BME280;47216;42.656;23.232;2024-02-14T11:48:11;94035.66;;;5.42;68.07
61345;BME280;47216;42.656;23.232;2024-02-14T11:50:39;94035.44;;;5.44;68.55
61345;BME280;47216;42.656;23.232;2024-02-14T11:53:06;94029.63;;;5.48;68.01
61345;BME280;47216;42.656;23.232;2024-02-14T11:55:36;94040.91;;;5.29;69.09
61345;BME280;47216;42.656;23.232;2024-02-14T11:58:06;94033.41;;;5.21;68.35
61345;BME280;47216;42.656;23.232;2024-02-14T12:00:33;94037.41;;;5.17;68.51
61345;BME280;47216;42.656;23.232;2024-02-14T12:03:06;94038.97;;;5.24;68.68
61345;BME280;47216;42.656;23.232;2024-02-14T12:05:34;94042.97;;;5.20;68.87
61345;BME280;47216;42.656;23.232;2024-02-14T12:08:01;94043.00;;;5.14;67.03
61345;BME280;47216;42.656;23.232;2024-02-14T12:10:31;94037.41;;;5.17;65.51
61345;BME280;47216;42.656;23.232;2024-02-14T12:12:58;94036.56;;;5.30;66.42
61345;BME280;47216;42.656;23.232;2024-02-14T12:15:25;94034.06;;;5.41;66.91
61345;BME280;47216;42.656;23.232;2024-02-14T12:17:55;94033.78;;;5.50;66.96
61345;BME280;47216;42.656;23.232;2024-02-14T12:20:24;94031.94;;;5.57;65.84
61345;BME280;47216;42.656;23.232;2024-02-14T12:22:51;94028.44;;;5.51;65.14
61345;BME280;47216;42.656;23.232;2024-02-14T12:25:20;94026.91;;;5.43;65.60
61345;BME280;47216;42.656;23.232;2024-02-14T12:27:50;94025.63;;;5.53;65.29
61345;BME280;47216;42.656;23.232;2024-02-14T12:30:17;94020.41;;;5.59;65.94
61345;BME280;47216;42.656;23.232;2024-02-14T12:32:44;94016.03;;;5.60;66.03
61345;BME280;47216;42.656;23.232;2024-02-14T12:35:11;94015.16;;;5.66;66.25
61345;BME280;47216;42.656;23.232;2024-02-14T12:37:39;94011.53;;;5.74;66.57
61345;BME280;47216;42.656;23.232;2024-02-14T12:40:08;94008.66;;;5.82;66.28
61345;BME280;47216;42.656;23.232;2024-02-14T12:42:35;94012.69;;;5.78;65.89
61345;BME280;47216;42.656;23.232;2024-02-14T12:45:02;94015.63;;;5.81;65.67
61345;BME280;47216;42.656;23.232;2024-02-14T12:47:31;94017.28;;;5.76;66.34
61345;BME280;47216;42.656;23.232;2024-02-14T12:50:00;94015.91;;;5.73;66.11
61345;BME280;47216;42.656;23.232;2024-02-14T12:52:27;94015.09;;;5.73;66.32
61345;BME280;47216;42.656;23.232;2024-02-14T12:54:57;94025.44;;;5.73;66.77
61345;BME280;47216;42.656;23.232;2024-02-14T12:57:23;94021.56;;;5.63;65.90
61345;BME280;47216;42.656;23.232;2024-02-14T12:59:50;94021.72;;;5.68;65.27
61345;BME280;47216;42.656;23.232;2024-02-14T13:02:17;94018.91;;;5.70;65.91